createdAt,value
2019-02-17T13:31:56.090Z,14.85
2019-02-17T13:34:25.442Z,15.18
2019-02-17T13:36:54.503Z,14.80
2019-02-17T13:39:23.338Z,14.75
2019-02-17T13:41:52.183Z,14.85
2019-02-17T13:44:21.165Z,15.25
2019-02-17T13:46:52.972Z,14.95
2019-02-17T13:49:21.915Z,15.05
2019-02-17T13:51:50.711Z,16.23
2019-02-17T13:54:19.642Z,14.55
2019-02-17T13:56:48.601Z,14.17
2019-02-17T13:59:17.478Z,16.23
2019-02-17T14:01:46.645Z,16.27
2019-02-17T14:04:15.539Z,15.13
2019-02-17T14:06:44.366Z,15.00
2019-02-17T14:09:13.430Z,15.13
2019-02-17T14:11:42.420Z,14.63
2019-02-17T14:14:13.111Z,14.67
2019-02-17T14:16:42.017Z,16.13
2019-02-17T14:19:11.055Z,15.70
2019-02-17T14:21:39.911Z,14.57
2019-02-17T14:24:08.851Z,15.37
2019-02-17T14:26:37.973Z,14.63
2019-02-17T14:29:07.110Z,14.77
2019-02-17T14:31:36.053Z,14.27
2019-02-17T14:34:05.156Z,16.77
2019-02-17T14:36:34.315Z,15.13
2019-02-17T14:39:04.695Z,13.40
2019-02-17T14:41:33.875Z,14.97
2019-02-17T14:44:02.943Z,15.33
2019-02-17T14:46:34.373Z,14.73
2019-02-17T14:49:03.454Z,14.40
2019-02-17T14:51:32.314Z,14.27
2019-02-17T14:54:01.327Z,14.87
2019-02-17T14:56:30.253Z,14.40
2019-02-17T14:58:59.420Z,14.90
2019-02-17T15:01:31.434Z,15.60
2019-02-17T15:04:08.465Z,15.80
2019-02-17T15:06:30.851Z,14.30
2019-02-17T15:08:59.638Z,15.23
2019-02-17T15:11:28.541Z,14.40
2019-02-17T15:13:57.665Z,14.07
2019-02-17T15:16:26.612Z,13.83
2019-02-17T15:18:55.408Z,14.30
2019-02-17T15:21:27.413Z,13.90
2019-02-17T15:23:56.237Z,15.63
2019-02-17T15:26:25.177Z,14.53
2019-02-17T15:28:54.138Z,15.13
2019-02-17T15:31:23.302Z,13.83
2019-02-17T15:33:52.724Z,14.43
2019-02-17T15:36:21.567Z,14.47
2019-02-17T15:38:50.400Z,13.97
2019-02-17T15:41:19.334Z,13.07
2019-02-17T15:43:48.249Z,12.50
2019-02-17T15:46:17.143Z,10.93
2019-02-17T15:48:46.815Z,11.80
2019-02-17T15:51:15.615Z,11.93
2019-02-17T15:53:44.589Z,11.47
2019-02-17T15:56:13.828Z,11.67
2019-02-17T15:58:44.956Z,11.90
2019-02-17T16:01:14.331Z,12.00
2019-02-17T16:03:44.944Z,10.90
2019-02-17T16:06:13.773Z,10.33
2019-02-17T16:08:42.990Z,12.17
2019-02-17T16:11:12.352Z,11.77
2019-02-17T16:13:41.226Z,12.13
2019-02-17T16:16:10.241Z,12.87
2019-02-17T16:18:39.491Z,12.07
2019-02-17T16:21:08.401Z,13.43
2019-02-17T16:23:37.446Z,13.00
2019-02-17T16:26:06.522Z,13.50
2019-02-17T16:28:35.482Z,15.07
2019-02-17T16:31:04.390Z,15.33
2019-02-17T16:33:33.250Z,15.10
2019-02-17T16:36:02.969Z,15.57
2019-02-17T16:38:31.987Z,16.90
2019-02-17T16:41:00.947Z,15.87
2019-02-17T16:43:29.815Z,16.40
2019-02-17T16:45:58.674Z,17.07
2019-02-17T16:48:27.524Z,17.57
2019-02-17T16:50:56.386Z,17.67
2019-02-17T16:53:25.496Z,18.40
2019-02-17T16:55:54.424Z,17.67
2019-02-17T16:58:23.296Z,19.60
2019-02-17T17:00:52.205Z,19.17
2019-02-17T17:03:21.085Z,20.63
2019-02-17T17:05:50.230Z,19.90
2019-02-17T17:08:19.225Z,19.95
2019-02-17T17:10:48.322Z,19.53
2019-02-17T17:13:17.283Z,19.03
2019-02-17T17:15:46.322Z,17.83
2019-02-17T17:18:15.370Z,17.37
2019-02-17T17:20:44.451Z,16.90
2019-02-17T17:23:13.396Z,17.83
2019-02-17T17:25:43.144Z,17.00
2019-02-17T17:28:12.236Z,17.47
2019-02-17T17:30:41.326Z,17.00
2019-02-17T17:33:10.441Z,17.40
2019-02-17T17:35:40.260Z,17.47
2019-02-17T17:38:09.450Z,17.33
2019-02-17T17:40:38.602Z,17.67
2019-02-17T17:43:08.340Z,17.53
2019-02-17T17:45:37.226Z,17.63
2019-02-17T17:48:06.952Z,16.93
2019-02-17T17:50:36.013Z,17.23
2019-02-17T17:53:05.046Z,21.43
2019-02-17T17:55:34.088Z,20.53
2019-02-17T17:58:03.322Z,20.53
2019-02-17T18:00:34.031Z,19.03
2019-02-17T18:03:03.128Z,19.07
2019-02-17T18:05:33.340Z,19.40
2019-02-17T18:08:02.368Z,19.07
2019-02-17T18:10:31.399Z,19.40
2019-02-17T18:13:00.470Z,18.93
2019-02-17T18:15:29.303Z,18.30
2019-02-17T18:17:58.719Z,19.53
2019-02-17T18:20:27.586Z,18.93
2019-02-17T18:22:56.546Z,18.70
2019-02-17T18:25:25.581Z,19.10
2019-02-17T18:27:57.406Z,19.53
2019-02-17T18:30:26.501Z,19.97
2019-02-17T18:32:55.629Z,19.37
2019-02-17T18:35:24.512Z,20.87
2019-02-17T18:37:53.541Z,19.63
2019-02-17T18:40:23.631Z,19.90
2019-02-17T18:42:52.531Z,20.53
2019-02-17T18:45:21.412Z,20.47
2019-02-17T18:47:50.526Z,19.60
2019-02-17T18:50:20.032Z,19.37
2019-02-17T18:52:48.991Z,20.77
2019-02-17T18:55:17.997Z,20.47
2019-02-17T18:57:50.724Z,20.70
2019-02-17T19:00:22.597Z,19.87
2019-02-17T19:02:52.005Z,20.07
2019-02-17T19:05:31.047Z,20.17
2019-02-17T19:07:51.395Z,20.60
2019-02-17T19:10:20.458Z,21.90
2019-02-17T19:12:49.457Z,20.30
2019-02-17T19:15:19.781Z,20.67
2019-02-17T19:17:48.831Z,20.00
2019-02-17T19:20:21.318Z,19.53
2019-02-17T19:22:50.323Z,21.40
2019-02-17T19:25:19.318Z,19.07
2019-02-17T19:27:48.369Z,19.07
2019-02-17T19:30:17.314Z,19.13
2019-02-17T19:32:46.380Z,20.97
2019-02-17T19:35:16.328Z,21.03
2019-02-17T19:37:45.299Z,21.73
2019-02-17T19:40:14.655Z,21.83
2019-02-17T19:42:43.744Z,20.13
2019-02-17T19:45:15.675Z,20.87
2019-02-17T19:47:47.128Z,20.87
2019-02-17T19:50:16.643Z,21.60
2019-02-17T19:52:45.635Z,22.00
2019-02-17T19:55:14.998Z,22.17
2019-02-17T19:57:43.891Z,22.03
2019-02-17T20:00:18.461Z,23.77
2019-02-17T20:03:01.292Z,23.27
2019-02-17T20:05:31.991Z,21.57
2019-02-17T20:08:00.938Z,22.73
2019-02-17T20:10:30.041Z,23.00
2019-02-17T20:12:58.986Z,21.67
2019-02-17T20:15:29.599Z,19.83
2019-02-17T20:17:58.550Z,19.43
2019-02-17T20:20:27.425Z,19.90
2019-02-17T20:22:56.271Z,20.13
2019-02-17T20:25:26.406Z,19.93
2019-02-17T20:27:55.708Z,17.87
2019-02-17T20:30:24.692Z,18.33
2019-02-17T20:32:53.652Z,19.87
2019-02-17T20:35:22.811Z,18.63
2019-02-17T20:37:51.913Z,17.77
2019-02-17T20:40:21.096Z,17.60
2019-02-17T20:42:50.040Z,16.53
2019-02-17T20:45:19.118Z,18.10
2019-02-17T20:47:48.325Z,16.07
2019-02-17T20:50:18.474Z,17.37
2019-02-17T20:52:47.896Z,16.17
2019-02-17T20:55:16.757Z,14.73
2019-02-17T20:57:46.906Z,16.05
2019-02-17T21:00:24.111Z,13.93
2019-02-17T21:02:53.036Z,14.60
2019-02-17T21:05:22.459Z,13.83
2019-02-17T21:07:51.381Z,13.83
2019-02-17T21:10:20.608Z,14.83
2019-02-17T21:12:49.510Z,13.47
2019-02-17T21:15:20.101Z,14.40
2019-02-17T21:17:49.766Z,14.77
2019-02-17T21:20:20.141Z,14.57
2019-02-17T21:22:49.045Z,14.57
2019-02-17T21:25:17.956Z,13.53
2019-02-17T21:27:47.064Z,13.00
2019-02-17T21:30:18.294Z,11.90
2019-02-17T21:32:47.459Z,13.13
2019-02-17T21:35:17.099Z,12.97
2019-02-17T21:37:46.246Z,13.20
2019-02-17T21:40:15.326Z,13.47
2019-02-17T21:42:44.331Z,13.13
2019-02-17T21:45:14.630Z,13.07
2019-02-17T21:47:45.420Z,12.87
2019-02-17T21:50:15.177Z,12.47
2019-02-17T21:52:44.874Z,12.97
2019-02-17T21:55:15.486Z,11.93
2019-02-17T21:58:03.791Z,12.70
2019-02-17T22:00:32.723Z,12.83
2019-02-17T22:03:01.684Z,11.67
2019-02-17T22:05:30.708Z,12.53
2019-02-17T22:07:59.601Z,11.57
2019-02-17T22:10:29.036Z,11.50
2019-02-17T22:12:58.059Z,11.83
2019-02-17T22:15:26.984Z,11.60
2019-02-17T22:17:55.838Z,12.50
2019-02-17T22:20:24.787Z,12.90
2019-02-17T22:22:53.961Z,13.73
2019-02-17T22:25:22.793Z,12.83
2019-02-17T22:27:52.220Z,12.60
2019-02-17T22:30:21.047Z,12.50
2019-02-17T22:32:50.079Z,13.63
2019-02-17T22:35:18.878Z,12.83
2019-02-17T22:37:47.810Z,12.47
2019-02-17T22:40:16.686Z,12.57
2019-02-17T22:42:45.813Z,12.17
2019-02-17T22:45:14.758Z,12.63
2019-02-17T22:47:43.713Z,12.17
2019-02-17T22:50:13.839Z,12.47
2019-02-17T22:52:43.002Z,13.10
2019-02-17T22:55:12.897Z,12.47
2019-02-17T22:57:42.069Z,12.00
2019-02-17T23:00:17.480Z,13.00
2019-02-17T23:02:46.487Z,12.20
2019-02-17T23:05:16.682Z,12.33
2019-02-17T23:07:45.840Z,12.73
2019-02-17T23:10:16.350Z,13.40
2019-02-17T23:12:50.575Z,12.90
2019-02-17T23:15:19.480Z,11.93
2019-02-17T23:17:48.359Z,13.13
2019-02-17T23:20:17.174Z,11.23
2019-02-17T23:22:46.155Z,11.67
2019-02-17T23:25:14.948Z,13.47
2019-02-17T23:27:43.821Z,12.47
2019-02-17T23:30:12.965Z,12.67
2019-02-17T23:32:41.948Z,12.60
2019-02-17T23:35:12.130Z,11.80
2019-02-17T23:37:41.158Z,12.10
2019-02-17T23:40:11.590Z,11.90
2019-02-17T23:42:40.566Z,12.60
2019-02-17T23:45:14.202Z,12.67
2019-02-17T23:47:43.014Z,13.23
2019-02-17T23:50:12.998Z,11.83
2019-02-17T23:52:42.537Z,12.87
2019-02-17T23:55:12.157Z,12.17
2019-02-17T23:57:41.201Z,13.17
